createdAt,value
2019-01-30T00:00:37.464Z,5.72
2019-01-30T00:03:05.796Z,7.75
2019-01-30T00:05:34.097Z,6.62
2019-01-30T00:08:02.443Z,7.58
2019-01-30T00:10:30.850Z,10.13
2019-01-30T00:13:00.202Z,11.28
2019-01-30T00:15:28.558Z,12.18
2019-01-30T00:17:56.910Z,10.78
2019-01-30T00:20:25.229Z,9.23
2019-01-30T00:22:53.615Z,5.30
2019-01-30T00:25:23.939Z,7.97
2019-01-30T00:27:51.925Z,8.38
2019-01-30T00:30:20.873Z,8.57
2019-01-30T00:32:49.213Z,8.50
2019-01-30T00:35:17.537Z,6.50
2019-01-30T00:37:45.917Z,11.75
2019-01-30T00:40:15.137Z,9.45
2019-01-30T00:42:43.584Z,10.85
2019-01-30T00:45:15.511Z,7.27
2019-01-30T00:47:43.784Z,7.62
2019-01-30T00:50:13.421Z,3.77
2019-01-30T00:52:41.750Z,7.03
2019-01-30T00:55:10.554Z,8.15
2019-01-30T00:57:38.901Z,13.72
2019-01-30T01:00:14.594Z,7.05
2019-01-30T01:02:38.727Z,13.00
2019-01-30T01:05:07.030Z,9.53
2019-01-30T01:07:35.370Z,11.90
2019-01-30T01:10:05.497Z,11.88
2019-01-30T01:12:34.846Z,4.65
2019-01-30T01:15:06.288Z,10.20
2019-01-30T01:17:34.630Z,10.30
2019-01-30T01:20:02.987Z,6.28
2019-01-30T01:22:31.695Z,6.50
2019-01-30T01:25:00.018Z,7.75
2019-01-30T01:27:28.368Z,5.92
2019-01-30T01:29:56.718Z,9.38
2019-01-30T01:32:26.033Z,10.10
2019-01-30T01:34:54.407Z,12.70
2019-01-30T01:37:22.730Z,3.27
2019-01-30T01:39:51.215Z,15.60
2019-01-30T01:42:19.504Z,8.15
2019-01-30T01:44:47.815Z,10.35
2019-01-30T01:47:16.143Z,4.53
2019-01-30T01:49:44.494Z,8.15
2019-01-30T01:52:12.830Z,12.68
2019-01-30T01:54:41.175Z,6.28
2019-01-30T01:57:09.502Z,10.63
2019-01-30T01:59:37.838Z,8.13
2019-01-30T02:02:06.143Z,10.40
2019-01-30T02:04:34.457Z,4.62
2019-01-30T02:07:02.824Z,5.55
2019-01-30T02:09:31.113Z,8.30
2019-01-30T02:11:59.441Z,7.17
2019-01-30T02:14:27.787Z,4.80
2019-01-30T02:16:56.104Z,7.87
2019-01-30T02:19:24.436Z,5.45
2019-01-30T02:21:52.771Z,7.17
2019-01-30T02:24:21.083Z,6.85
2019-01-30T02:26:49.410Z,5.03
2019-01-30T02:29:17.765Z,4.33
2019-01-30T02:31:46.102Z,5.15
2019-01-30T02:34:14.435Z,8.60
2019-01-30T02:36:53.354Z,9.45
2019-01-30T02:39:21.662Z,2.10
2019-01-30T02:41:49.975Z,8.73
2019-01-30T02:44:18.314Z,7.23
2019-01-30T02:46:47.784Z,6.05
2019-01-30T02:49:16.082Z,8.83
2019-01-30T02:51:44.426Z,6.87
2019-01-30T02:54:12.761Z,7.00
2019-01-30T02:56:41.118Z,11.25
2019-01-30T02:59:09.427Z,9.08
2019-01-30T03:01:51.470Z,7.03
2019-01-30T03:04:19.803Z,5.83
2019-01-30T03:06:48.104Z,7.20
2019-01-30T03:09:16.417Z,7.70
2019-01-30T03:11:44.786Z,7.12
2019-01-30T03:14:13.076Z,7.70
2019-01-30T03:16:41.443Z,9.18
2019-01-30T03:19:09.773Z,11.03
2019-01-30T03:21:38.069Z,9.78
2019-01-30T03:24:06.408Z,11.80
2019-01-30T03:26:34.805Z,9.43
2019-01-30T03:29:03.126Z,10.05
2019-01-30T03:31:31.450Z,7.37
2019-01-30T03:33:59.787Z,10.13
2019-01-30T03:36:28.114Z,14.47
2019-01-30T03:38:56.442Z,7.30
2019-01-30T03:41:24.778Z,7.22
2019-01-30T03:43:53.113Z,11.63
2019-01-30T03:46:21.409Z,9.18
2019-01-30T03:48:49.742Z,9.58
2019-01-30T03:51:18.072Z,20.23
2019-01-30T03:53:46.415Z,8.53
2019-01-30T03:56:14.730Z,9.30
2019-01-30T03:58:43.039Z,6.60
2019-01-30T04:01:11.448Z,7.40
2019-01-30T04:03:39.755Z,7.95
2019-01-30T04:06:09.090Z,5.58
2019-01-30T04:08:37.393Z,4.42
2019-01-30T04:11:05.763Z,8.30
2019-01-30T04:13:34.091Z,7.90
2019-01-30T04:16:02.537Z,8.43
2019-01-30T04:18:30.834Z,6.60
2019-01-30T04:20:59.174Z,8.88
2019-01-30T04:23:27.487Z,4.75
2019-01-30T04:25:56.171Z,8.78
2019-01-30T04:28:25.550Z,13.75
2019-01-30T04:30:53.907Z,8.70
2019-01-30T04:33:22.234Z,10.13
2019-01-30T04:35:50.572Z,5.50
2019-01-30T04:38:18.873Z,8.63
2019-01-30T04:40:47.193Z,8.33
2019-01-30T04:43:18.581Z,6.47
2019-01-30T04:45:46.897Z,11.50
2019-01-30T04:48:15.258Z,34.47
2019-01-30T04:50:43.608Z,13.88
2019-01-30T04:53:11.902Z,10.80
2019-01-30T04:55:40.229Z,13.75
2019-01-30T04:58:09.569Z,10.50
2019-01-30T05:00:37.887Z,18.50
2019-01-30T05:03:06.219Z,8.58
2019-01-30T05:05:36.260Z,16.75
2019-01-30T05:08:04.580Z,13.98
2019-01-30T05:10:32.927Z,15.23
2019-01-30T05:13:01.262Z,18.00
2019-01-30T05:15:29.563Z,13.90
2019-01-30T05:17:57.898Z,18.25
2019-01-30T05:20:26.286Z,11.73
2019-01-30T05:22:54.544Z,20.77
2019-01-30T05:25:24.043Z,33.47
2019-01-30T05:27:52.384Z,19.00
2019-01-30T05:30:27.666Z,9.55
2019-01-30T05:32:56.002Z,6.53
2019-01-30T05:35:24.336Z,9.08
2019-01-30T05:37:52.891Z,6.90
2019-01-30T05:40:21.810Z,14.40
2019-01-30T05:42:50.151Z,6.45
2019-01-30T05:45:18.494Z,9.00
2019-01-30T05:47:46.821Z,7.87
2019-01-30T05:50:15.246Z,11.95
2019-01-30T05:52:43.584Z,13.50
2019-01-30T05:55:12.693Z,9.65
2019-01-30T05:57:41.022Z,7.62
2019-01-30T06:00:10.930Z,5.95
2019-01-30T06:02:39.246Z,14.00
2019-01-30T06:05:07.586Z,9.88
2019-01-30T06:07:35.893Z,10.32
2019-01-30T06:10:05.838Z,7.37
2019-01-30T06:12:34.159Z,9.20
2019-01-30T06:15:02.509Z,12.13
2019-01-30T06:17:30.863Z,12.40
2019-01-30T06:19:59.197Z,10.70
2019-01-30T06:22:27.541Z,12.98
2019-01-30T06:24:55.880Z,11.38
2019-01-30T06:27:24.204Z,13.60
2019-01-30T06:29:55.856Z,14.40
2019-01-30T06:32:24.199Z,12.25
2019-01-30T06:34:52.546Z,11.68
2019-01-30T06:37:20.879Z,11.27
2019-01-30T06:39:50.754Z,13.43
2019-01-30T06:42:19.061Z,9.23
2019-01-30T06:44:48.500Z,12.75
2019-01-30T06:47:16.821Z,17.20
2019-01-30T06:49:45.207Z,11.20
2019-01-30T06:52:13.546Z,9.70
2019-01-30T06:54:41.895Z,8.98
2019-01-30T06:57:10.242Z,11.50
2019-01-30T06:59:38.554Z,10.93
2019-01-30T07:02:06.906Z,9.63
2019-01-30T07:04:35.214Z,11.60
2019-01-30T07:07:04.303Z,8.75
2019-01-30T07:09:32.633Z,12.43
2019-01-30T07:12:01.111Z,12.68
2019-01-30T07:14:29.407Z,10.15
2019-01-30T07:16:57.744Z,9.40
2019-01-30T07:19:26.054Z,9.25
2019-01-30T07:21:54.356Z,9.90
2019-01-30T07:24:22.677Z,8.37
2019-01-30T07:26:50.986Z,8.80
2019-01-30T07:29:19.320Z,9.17
2019-01-30T07:31:47.683Z,5.33
2019-01-30T07:34:16.018Z,11.13
2019-01-30T07:36:44.365Z,12.45
2019-01-30T07:39:13.402Z,7.37
2019-01-30T07:41:41.698Z,8.95
2019-01-30T07:44:10.025Z,8.63
2019-01-30T07:46:38.367Z,7.80
2019-01-30T07:49:06.715Z,7.17
2019-01-30T07:51:35.038Z,11.65
2019-01-30T07:54:03.376Z,8.50
2019-01-30T07:56:31.691Z,6.75
2019-01-30T07:59:00.018Z,4.83
2019-01-30T08:01:28.358Z,9.30
2019-01-30T08:03:56.680Z,6.90
2019-01-30T08:06:25.019Z,8.78
2019-01-30T08:08:53.454Z,6.55
2019-01-30T08:11:21.774Z,9.07
2019-01-30T08:13:50.095Z,5.75
2019-01-30T08:16:18.414Z,4.15
2019-01-30T08:18:46.760Z,8.10
2019-01-30T08:21:15.103Z,6.28
2019-01-30T08:23:43.439Z,8.68
2019-01-30T08:26:12.265Z,12.20
2019-01-30T08:28:40.916Z,6.53
2019-01-30T08:31:09.328Z,6.03
2019-01-30T08:33:38.671Z,7.87
2019-01-30T08:36:07.008Z,10.70
2019-01-30T08:38:35.350Z,9.98
2019-01-30T08:41:03.651Z,8.40
2019-01-30T08:43:33.077Z,12.35
2019-01-30T08:46:01.405Z,11.83
2019-01-30T08:48:30.232Z,8.68
2019-01-30T08:50:59.695Z,7.17
2019-01-30T08:53:27.990Z,5.58
2019-01-30T08:55:56.318Z,3.95
2019-01-30T08:58:24.646Z,9.28
2019-01-30T09:00:52.954Z,8.70
2019-01-30T09:03:21.294Z,5.25
2019-01-30T09:05:49.630Z,5.65
2019-01-30T09:08:17.961Z,7.80
2019-01-30T09:10:46.291Z,6.62
2019-01-30T09:13:14.653Z,9.23
2019-01-30T09:15:42.990Z,8.45
2019-01-30T09:18:11.322Z,8.10
2019-01-30T09:20:39.739Z,6.70
2019-01-30T09:23:08.041Z,5.87
2019-01-30T09:25:36.369Z,8.83
2019-01-30T09:28:04.688Z,5.33
2019-01-30T09:30:34.571Z,6.85
2019-01-30T09:33:02.925Z,5.05
2019-01-30T09:35:31.253Z,4.92
2019-01-30T09:37:59.612Z,6.03
2019-01-30T09:40:28.904Z,3.55
2019-01-30T09:42:57.251Z,7.50
2019-01-30T09:45:25.736Z,6.25
2019-01-30T09:47:54.115Z,3.17
2019-01-30T09:50:23.247Z,6.05
2019-01-30T09:52:51.541Z,5.45
2019-01-30T09:55:20.070Z,4.83
2019-01-30T09:57:48.402Z,3.87
2019-01-30T10:00:29.125Z,3.33
2019-01-30T10:02:59.025Z,4.65
2019-01-30T10:05:28.819Z,3.27
2019-01-30T10:07:57.159Z,12.35
2019-01-30T10:10:33.003Z,5.17
2019-01-30T10:13:01.343Z,4.85
2019-01-30T10:15:30.750Z,10.32
2019-01-30T10:17:59.090Z,25.80
2019-01-30T10:20:28.233Z,16.85
2019-01-30T10:22:56.901Z,7.70
2019-01-30T10:25:25.261Z,13.48
2019-01-30T10:27:53.918Z,12.25
2019-01-30T10:30:26.493Z,12.90
2019-01-30T10:32:54.808Z,15.18
2019-01-30T10:35:23.146Z,16.67
2019-01-30T10:37:51.477Z,12.00
2019-01-30T10:40:20.281Z,8.85
2019-01-30T10:42:48.797Z,7.60
2019-01-30T10:45:17.152Z,9.90
2019-01-30T10:47:45.457Z,9.13
2019-01-30T10:50:23.599Z,7.27
2019-01-30T10:52:51.889Z,9.45
2019-01-30T10:55:21.222Z,10.03
2019-01-30T10:57:50.368Z,7.47
2019-01-30T11:00:25.837Z,6.75
2019-01-30T11:02:51.511Z,6.67
2019-01-30T11:05:19.827Z,8.40
2019-01-30T11:07:48.171Z,6.50
2019-01-30T11:10:20.347Z,5.43
2019-01-30T11:12:48.646Z,5.83
2019-01-30T11:15:19.501Z,5.53
2019-01-30T11:17:47.829Z,4.22
2019-01-30T11:20:17.194Z,16.48
2019-01-30T11:22:45.522Z,10.00
2019-01-30T11:25:15.254Z,9.05
2019-01-30T11:27:43.571Z,8.35
2019-01-30T11:30:12.693Z,8.30
2019-01-30T11:32:41.188Z,5.85
2019-01-30T11:35:10.083Z,5.65
2019-01-30T11:37:38.395Z,9.63
2019-01-30T11:40:08.298Z,6.45
2019-01-30T11:42:36.606Z,5.30
2019-01-30T11:45:06.498Z,7.22
2019-01-30T11:47:34.939Z,6.35
2019-01-30T11:50:03.352Z,7.25
2019-01-30T11:52:31.670Z,8.10
2019-01-30T11:54:59.975Z,5.00
2019-01-30T11:57:28.312Z,9.15
2019-01-30T11:59:56.641Z,8.90
2019-01-30T12:02:24.950Z,8.43
2019-01-30T12:04:53.300Z,7.40
2019-01-30T12:07:21.664Z,5.37
2019-01-30T12:09:49.968Z,2.83
2019-01-30T12:12:18.321Z,1.52
2019-01-30T12:14:46.704Z,2.40
2019-01-30T12:17:15.048Z,2.83
2019-01-30T12:19:43.353Z,4.47
2019-01-30T12:22:11.734Z,3.67
2019-01-30T12:24:40.097Z,5.85
2019-01-30T12:27:08.442Z,2.98
2019-01-30T12:29:36.769Z,5.25
2019-01-30T12:32:05.272Z,3.75
2019-01-30T12:34:35.121Z,3.62
2019-01-30T12:37:03.449Z,5.30
2019-01-30T12:39:31.767Z,6.53
2019-01-30T12:42:00.102Z,3.47
2019-01-30T12:44:28.400Z,5.12
2019-01-30T12:46:56.744Z,4.17
2019-01-30T12:49:25.069Z,4.97
2019-01-30T12:51:57.980Z,3.62
2019-01-30T12:54:26.297Z,4.45
2019-01-30T12:56:54.606Z,3.50
2019-01-30T12:59:25.994Z,7.20
2019-01-30T13:01:54.304Z,5.80
2019-01-30T13:04:22.652Z,4.57
2019-01-30T13:06:50.989Z,10.23
2019-01-30T13:09:19.313Z,5.08
2019-01-30T13:11:47.963Z,4.12
2019-01-30T13:14:16.303Z,11.12
2019-01-30T13:16:44.645Z,10.78
2019-01-30T13:19:12.978Z,10.85
2019-01-30T13:21:41.277Z,8.25
2019-01-30T13:24:09.602Z,4.57
2019-01-30T13:26:37.927Z,8.00
2019-01-30T13:29:06.235Z,9.80
2019-01-30T13:31:34.583Z,11.75
2019-01-30T13:34:02.933Z,11.50
2019-01-30T13:36:31.271Z,6.65
2019-01-30T13:38:59.629Z,4.08
2019-01-30T13:41:27.981Z,4.72
2019-01-30T13:43:56.421Z,8.70
2019-01-30T13:46:47.036Z,6.67
2019-01-30T13:49:15.391Z,8.90
2019-01-30T13:51:43.708Z,5.72
2019-01-30T13:54:12.163Z,11.25
2019-01-30T13:56:41.545Z,6.22
2019-01-30T13:59:10.051Z,4.90
2019-01-30T14:01:38.343Z,7.22
2019-01-30T14:04:08.974Z,5.30
2019-01-30T14:06:37.601Z,5.20
2019-01-30T14:09:06.890Z,4.47
2019-01-30T14:11:35.236Z,7.60
2019-01-30T14:14:04.727Z,9.13
2019-01-30T14:16:33.079Z,9.00
2019-01-30T14:19:01.519Z,5.70
2019-01-30T14:21:29.872Z,6.22
2019-01-30T14:23:58.244Z,6.15
2019-01-30T14:26:26.522Z,7.12
2019-01-30T14:28:54.874Z,6.90
2019-01-30T14:31:23.265Z,5.20
2019-01-30T14:33:51.613Z,6.65
2019-01-30T14:36:20.050Z,4.22
2019-01-30T14:38:48.458Z,6.75
2019-01-30T14:41:17.921Z,3.97
2019-01-30T14:43:49.019Z,5.45
2019-01-30T14:46:17.415Z,6.87
2019-01-30T14:48:45.749Z,10.00
2019-01-30T14:51:14.106Z,9.10
2019-01-30T14:53:42.454Z,4.87
2019-01-30T14:56:10.809Z,3.17
2019-01-30T14:58:39.171Z,4.90
2019-01-30T15:01:07.464Z,5.97
2019-01-30T15:03:35.845Z,7.75
2019-01-30T15:06:04.411Z,4.40
2019-01-30T15:08:32.791Z,5.62
2019-01-30T15:11:01.213Z,5.30
2019-01-30T15:13:29.539Z,6.25
2019-01-30T15:15:57.913Z,5.22
2019-01-30T15:18:26.262Z,5.10
2019-01-30T15:20:54.663Z,5.92
2019-01-30T15:23:23.959Z,8.90
2019-01-30T15:25:52.442Z,8.55
2019-01-30T15:28:20.699Z,10.53
2019-01-30T15:30:49.079Z,10.93
2019-01-30T15:33:17.427Z,8.70
2019-01-30T15:35:45.875Z,18.87
2019-01-30T15:38:14.299Z,25.88
2019-01-30T15:40:42.621Z,26.27
2019-01-30T15:43:11.129Z,27.17
2019-01-30T15:45:39.445Z,31.33
2019-01-30T15:48:07.881Z,29.60
2019-01-30T15:50:39.928Z,40.60
2019-01-30T15:53:09.818Z,28.52
2019-01-30T15:55:38.175Z,25.12
2019-01-30T15:58:07.757Z,28.57
2019-01-30T16:00:49.229Z,23.83
2019-01-30T16:03:17.619Z,26.20
2019-01-30T16:05:45.970Z,21.73
2019-01-30T16:08:14.348Z,25.53
2019-01-30T16:10:42.742Z,26.48
2019-01-30T16:13:11.078Z,25.37
2019-01-30T16:15:41.078Z,21.05
2019-01-30T16:18:09.515Z,20.75
2019-01-30T16:20:37.844Z,15.58
2019-01-30T16:23:07.185Z,18.32
2019-01-30T16:25:35.494Z,18.65
2019-01-30T16:28:04.267Z,15.15
2019-01-30T16:30:32.587Z,12.35
2019-01-30T16:33:00.984Z,16.10
2019-01-30T16:35:30.303Z,12.13
2019-01-30T16:37:58.702Z,15.28
2019-01-30T16:40:27.054Z,11.10
2019-01-30T16:42:57.541Z,8.13
2019-01-30T16:45:26.925Z,8.63
2019-01-30T16:47:55.274Z,13.70
2019-01-30T16:50:23.604Z,14.53
2019-01-30T16:52:51.910Z,14.87
2019-01-30T16:55:20.558Z,12.58
2019-01-30T16:57:49.875Z,10.65
2019-01-30T17:00:29.053Z,11.50
2019-01-30T17:02:57.490Z,12.33
2019-01-30T17:05:26.036Z,17.77
2019-01-30T17:07:54.381Z,14.40
2019-01-30T17:10:22.713Z,14.67
2019-01-30T17:12:51.075Z,16.35
2019-01-30T17:15:23.944Z,12.93
2019-01-30T17:17:52.254Z,15.98
2019-01-30T17:20:24.306Z,17.57
2019-01-30T17:22:52.638Z,18.55
2019-01-30T17:25:21.979Z,19.92
2019-01-30T17:27:51.325Z,23.65
2019-01-30T17:30:33.337Z,29.30
2019-01-30T17:33:01.766Z,26.10
2019-01-30T17:35:30.069Z,26.07
2019-01-30T17:37:58.693Z,19.48
2019-01-30T17:40:27.617Z,16.27
2019-01-30T17:42:55.973Z,16.37
2019-01-30T17:45:24.303Z,19.12
2019-01-30T17:47:53.617Z,17.50
2019-01-30T17:50:25.553Z,28.87
2019-01-30T17:52:53.873Z,21.90
2019-01-30T17:55:22.220Z,14.25
2019-01-30T17:57:50.563Z,13.45
2019-01-30T18:00:22.180Z,12.18
2019-01-30T18:02:51.135Z,13.90
2019-01-30T18:05:19.473Z,16.80
2019-01-30T18:07:47.819Z,14.58
2019-01-30T18:10:17.850Z,15.50
2019-01-30T18:12:46.314Z,14.47
2019-01-30T18:15:14.668Z,11.70
2019-01-30T18:17:42.989Z,14.15
2019-01-30T18:20:15.863Z,12.85
2019-01-30T18:22:44.586Z,13.83
2019-01-30T18:25:14.289Z,14.38
2019-01-30T18:27:42.634Z,20.27
2019-01-30T18:30:12.225Z,18.23
2019-01-30T18:32:40.493Z,19.52
2019-01-30T18:35:08.869Z,16.76
2019-01-30T18:37:37.174Z,18.82
2019-01-30T18:40:09.763Z,21.87
2019-01-30T18:42:38.070Z,22.77
2019-01-30T18:45:08.035Z,27.25
2019-01-30T18:47:37.369Z,17.35
2019-01-30T18:50:08.382Z,21.73
2019-01-30T18:52:38.265Z,19.15
2019-01-30T18:58:02.574Z,20.30
2019-01-30T19:00:32.526Z,25.37
2019-01-30T19:03:06.599Z,21.10
2019-01-30T19:05:34.932Z,21.90
2019-01-30T19:08:03.308Z,18.52
2019-01-30T19:10:34.280Z,20.68
2019-01-30T19:13:02.589Z,18.00
2019-01-30T19:15:30.942Z,19.57
2019-01-30T19:17:59.261Z,23.12
2019-01-30T19:20:29.014Z,22.58
2019-01-30T19:22:57.334Z,25.60
2019-01-30T19:25:25.682Z,25.48
2019-01-30T19:27:56.020Z,27.67
2019-01-30T19:30:24.866Z,22.45
2019-01-30T19:32:53.174Z,24.55
2019-01-30T19:35:21.527Z,22.17
2019-01-30T19:37:50.881Z,22.70
2019-01-30T19:40:20.641Z,21.40
2019-01-30T19:42:49.281Z,30.02
2019-01-30T19:45:21.551Z,23.02
2019-01-30T19:47:51.172Z,23.12
2019-01-30T19:50:23.888Z,25.50
2019-01-30T19:52:52.222Z,25.77
2019-01-30T19:55:20.546Z,32.35
2019-01-30T19:57:48.921Z,29.87
2019-01-30T20:00:18.572Z,29.87
2019-01-30T20:02:46.915Z,29.48
2019-01-30T20:05:15.251Z,25.80
2019-01-30T20:07:43.572Z,26.73
2019-01-30T20:10:13.493Z,26.77
2019-01-30T20:12:41.807Z,28.98
2019-01-30T20:15:10.346Z,24.05
2019-01-30T20:17:38.686Z,26.80
2019-01-30T20:20:08.419Z,46.55
2019-01-30T20:22:36.775Z,46.13
2019-01-30T20:25:06.682Z,37.33
2019-01-30T20:27:34.989Z,34.48
2019-01-30T20:30:03.530Z,32.45
2019-01-30T20:32:31.848Z,27.67
2019-01-30T20:35:00.181Z,30.80
2019-01-30T20:37:28.547Z,31.10
2019-01-30T20:39:56.900Z,30.37
2019-01-30T20:42:25.244Z,28.45
2019-01-30T20:44:53.590Z,26.27
2019-01-30T20:47:21.947Z,27.80
2019-01-30T20:49:50.759Z,32.20
2019-01-30T20:52:19.135Z,26.15
2019-01-30T20:54:47.519Z,29.85
2019-01-30T20:57:15.853Z,37.55
2019-01-30T20:59:44.175Z,33.40
2019-01-30T21:02:12.522Z,29.20
2019-01-30T21:04:42.322Z,30.45
2019-01-30T21:07:10.656Z,28.35
2019-01-30T21:09:39.011Z,31.27
2019-01-30T21:12:07.323Z,32.83
2019-01-30T21:14:35.694Z,34.13
2019-01-30T21:17:04.021Z,36.30
2019-01-30T21:19:32.480Z,35.92
2019-01-30T21:22:00.937Z,35.88
2019-01-30T21:24:29.280Z,38.42
2019-01-30T21:26:57.625Z,38.92
2019-01-30T21:29:25.946Z,39.25
2019-01-30T21:31:54.917Z,38.23
2019-01-30T21:34:23.629Z,38.05
2019-01-30T21:36:53.456Z,51.60
2019-01-30T21:39:21.790Z,57.85
2019-01-30T21:41:50.139Z,44.60
2019-01-30T21:44:18.445Z,40.17
2019-01-30T21:46:46.759Z,37.63
2019-01-30T21:49:15.124Z,35.65
2019-01-30T21:51:43.438Z,27.75
2019-01-30T21:54:11.742Z,31.13
2019-01-30T21:56:40.091Z,28.45
2019-01-30T21:59:08.534Z,34.85
2019-01-30T22:01:36.846Z,35.58
2019-01-30T22:04:05.190Z,33.75
2019-01-30T22:06:33.515Z,35.98
2019-01-30T22:09:01.859Z,31.85
2019-01-30T22:11:31.737Z,34.27
2019-01-30T22:14:00.062Z,36.65
2019-01-30T22:16:28.439Z,45.35
2019-01-30T22:18:56.799Z,60.90
2019-01-30T22:21:25.094Z,51.10
2019-01-30T22:24:05.024Z,47.53
2019-01-30T22:26:25.983Z,54.13
2019-01-30T22:28:54.345Z,54.08
2019-01-30T22:31:22.697Z,52.73
2019-01-30T22:33:51.046Z,54.03
2019-01-30T22:36:19.485Z,49.05
2019-01-30T22:38:47.817Z,63.63
2019-01-30T22:41:16.154Z,64.47
2019-01-30T22:43:44.461Z,61.90
2019-01-30T22:46:13.101Z,57.88
2019-01-30T22:48:41.465Z,50.30
2019-01-30T22:51:09.783Z,46.30
2019-01-30T22:53:38.221Z,40.67
2019-01-30T22:56:06.558Z,53.33
2019-01-30T22:58:34.934Z,65.32
2019-01-30T23:01:10.817Z,90.20
2019-01-30T23:03:43.415Z,66.62
2019-01-30T23:06:13.322Z,49.37
2019-01-30T23:08:49.208Z,46.53
2019-01-30T23:11:22.178Z,48.43
2019-01-30T23:13:52.210Z,57.58
2019-01-30T23:16:40.285Z,57.57
2019-01-30T23:19:24.959Z,49.85
2019-01-30T23:22:00.576Z,52.30
2019-01-30T23:24:46.926Z,84.70
2019-01-30T23:27:22.855Z,69.95
2019-01-30T23:29:52.757Z,55.55
2019-01-30T23:32:22.673Z,61.17
2019-01-30T23:34:53.332Z,61.40
2019-01-30T23:37:29.251Z,60.40
2019-01-30T23:39:59.139Z,58.20
2019-01-30T23:42:31.970Z,63.63
2019-01-30T23:45:07.574Z,58.50
2019-01-30T23:47:49.655Z,69.30
2019-01-30T23:50:22.376Z,52.43
2019-01-30T23:52:54.969Z,58.65
2019-01-30T23:55:30.826Z,89.90
